createdAt,value
2018-11-12T00:00:25.277Z,11.90
2018-11-12T00:02:58.838Z,12.30
2018-11-12T00:05:31.279Z,12.17
2018-11-12T00:08:03.750Z,11.47
2018-11-12T00:10:36.277Z,12.60
2018-11-12T00:13:09.153Z,12.23
2018-11-12T00:15:41.650Z,13.57
2018-11-12T00:18:14.164Z,13.30
2018-11-12T00:20:46.708Z,13.10
2018-11-12T00:23:19.482Z,12.67
2018-11-12T00:25:52.094Z,13.63
2018-11-12T00:28:24.694Z,12.63
2018-11-12T00:30:57.191Z,13.03
2018-11-12T00:33:30.780Z,11.73
2018-11-12T00:36:03.397Z,12.07
2018-11-12T00:38:35.923Z,12.83
2018-11-12T00:41:08.564Z,11.77
2018-11-12T00:43:41.470Z,13.03
2018-11-12T00:46:14.101Z,12.67
2018-11-12T00:48:46.885Z,12.60
2018-11-12T00:51:20.191Z,12.23
2018-11-12T00:53:53.846Z,12.53
2018-11-12T00:56:26.613Z,12.13
2018-11-12T00:58:59.342Z,13.63
2018-11-12T01:01:32.082Z,12.07
2018-11-12T01:04:05.715Z,12.03
2018-11-12T01:06:38.551Z,12.60
2018-11-12T01:09:12.249Z,13.13
2018-11-12T01:11:44.939Z,13.20
2018-11-12T01:14:17.443Z,12.60
2018-11-12T01:16:49.895Z,12.73
2018-11-12T01:19:22.574Z,13.10
2018-11-12T01:21:55.111Z,13.07
2018-11-12T01:24:27.830Z,13.27
2018-11-12T01:27:00.346Z,13.13
2018-11-12T01:29:32.820Z,13.23
2018-11-12T01:32:05.537Z,12.40
2018-11-12T01:34:38.305Z,12.97
2018-11-12T01:37:10.919Z,13.20
2018-11-12T01:39:43.700Z,12.63
2018-11-12T01:42:16.242Z,13.30
2018-11-12T01:44:48.761Z,14.10
2018-11-12T01:47:21.253Z,14.00
2018-11-12T01:49:54.279Z,12.67
2018-11-12T01:52:26.860Z,13.57
2018-11-12T01:54:59.372Z,14.07
2018-11-12T01:57:31.870Z,13.17
2018-11-12T02:00:06.498Z,13.73
2018-11-12T02:02:39.051Z,13.40
2018-11-12T02:05:11.607Z,14.60
2018-11-12T02:07:44.175Z,13.73
2018-11-12T02:10:17.601Z,14.90
2018-11-12T02:12:50.238Z,14.53
2018-11-12T02:15:22.962Z,14.10
2018-11-12T02:17:55.622Z,14.50
2018-11-12T02:20:28.303Z,14.17
2018-11-12T02:23:00.926Z,13.33
2018-11-12T02:25:33.727Z,13.60
2018-11-12T02:28:06.205Z,12.87
2018-11-12T02:30:44.408Z,13.20
2018-11-12T02:33:18.618Z,14.13
2018-11-12T02:35:51.243Z,14.40
2018-11-12T02:38:24.094Z,13.87
2018-11-12T02:40:56.937Z,13.53
2018-11-12T02:43:30.751Z,13.43
2018-11-12T02:46:03.376Z,14.20
2018-11-12T02:48:35.947Z,14.33
2018-11-12T02:51:08.791Z,13.70
2018-11-12T02:53:42.541Z,13.80
2018-11-12T02:56:15.046Z,13.03
2018-11-12T02:58:48.438Z,13.20
2018-11-12T03:01:22.497Z,13.60
2018-11-12T03:03:55.558Z,13.77
2018-11-12T03:06:30.244Z,12.63
2018-11-12T03:09:06.598Z,12.33
2018-11-12T03:11:39.537Z,12.70
2018-11-12T03:14:12.242Z,13.17
2018-11-12T03:16:44.724Z,13.67
2018-11-12T03:19:17.391Z,13.60
2018-11-12T03:21:49.825Z,13.40
2018-11-12T03:24:22.517Z,13.57
2018-11-12T03:26:54.998Z,13.00
2018-11-12T03:29:27.473Z,13.20
2018-11-12T03:31:59.887Z,12.77
2018-11-12T03:34:32.522Z,13.50
2018-11-12T03:37:05.377Z,13.43
2018-11-12T03:39:38.425Z,12.87
2018-11-12T03:42:10.990Z,13.33
2018-11-12T03:44:43.697Z,13.27
2018-11-12T03:47:16.119Z,13.67
2018-11-12T03:49:48.879Z,12.70
2018-11-12T03:52:21.400Z,14.10
2018-11-12T03:54:53.845Z,13.10
2018-11-12T03:57:26.312Z,12.93
2018-11-12T03:59:58.739Z,13.07
2018-11-12T04:02:31.219Z,12.90
2018-11-12T04:05:04.069Z,13.50
2018-11-12T04:07:37.115Z,13.00
2018-11-12T04:10:13.068Z,13.30
2018-11-12T04:12:45.648Z,13.10
2018-11-12T04:15:22.572Z,13.23
2018-11-12T04:17:55.257Z,13.67
2018-11-12T04:20:27.761Z,12.93
2018-11-12T04:23:03.570Z,12.17
2018-11-12T04:25:40.670Z,11.60
2018-11-12T04:28:14.324Z,12.23
2018-11-12T04:30:46.885Z,12.87
2018-11-12T04:33:19.296Z,12.27
2018-11-12T04:35:51.972Z,12.03
2018-11-12T04:38:24.398Z,11.60
2018-11-12T04:40:56.936Z,11.90
2018-11-12T04:43:29.464Z,11.53
2018-11-12T04:46:02.024Z,12.30
2018-11-12T04:48:34.515Z,11.80
2018-11-12T04:51:08.163Z,11.20
2018-11-12T04:53:41.043Z,12.37
2018-11-12T04:56:13.870Z,11.87
2018-11-12T04:58:46.816Z,11.93
2018-11-12T05:01:20.295Z,12.10
2018-11-12T05:03:53.013Z,11.70
2018-11-12T05:06:25.551Z,11.33
2018-11-12T05:08:58.059Z,11.53
2018-11-12T05:11:30.517Z,11.97
2018-11-12T05:14:03.073Z,11.60
2018-11-12T05:16:35.656Z,11.43
2018-11-12T05:19:08.165Z,11.63
2018-11-12T05:21:40.702Z,11.40
2018-11-12T05:24:13.138Z,11.97
2018-11-12T05:26:45.824Z,11.70
2018-11-12T05:29:18.281Z,11.77
2018-11-12T05:31:50.749Z,12.00
2018-11-12T05:34:23.326Z,12.20
2018-11-12T05:36:55.870Z,12.30
2018-11-12T05:39:28.729Z,13.70
2018-11-12T05:42:01.316Z,12.50
2018-11-12T05:44:33.777Z,11.70
2018-11-12T05:47:06.449Z,12.27
2018-11-12T05:49:39.149Z,12.23
2018-11-12T05:52:11.618Z,12.70
2018-11-12T05:54:44.092Z,13.03
2018-11-12T05:57:16.616Z,12.90
2018-11-12T05:59:49.080Z,13.30
2018-11-12T06:02:21.693Z,13.47
2018-11-12T06:04:54.493Z,12.83
2018-11-12T06:07:26.908Z,12.67
2018-11-12T06:09:59.552Z,12.63
2018-11-12T06:12:32.540Z,11.97
2018-11-12T06:15:05.976Z,12.27
2018-11-12T06:17:39.377Z,10.67
2018-11-12T06:20:14.094Z,10.77
2018-11-12T06:22:46.838Z,11.57
2018-11-12T06:25:21.641Z,12.47
2018-11-12T06:27:55.060Z,11.90
2018-11-12T06:30:29.115Z,12.07
2018-11-12T06:33:01.683Z,12.27
2018-11-12T06:35:34.225Z,12.30
2018-11-12T06:38:06.721Z,12.17
2018-11-12T06:40:39.282Z,13.17
2018-11-12T06:43:11.967Z,13.23
2018-11-12T06:45:44.557Z,12.77
2018-11-12T06:48:17.218Z,13.43
2018-11-12T06:50:50.082Z,12.73
2018-11-12T06:53:22.782Z,12.97
2018-11-12T06:55:55.306Z,12.60
2018-11-12T06:58:27.903Z,12.73
2018-11-12T07:01:00.763Z,13.33
2018-11-12T07:03:33.362Z,12.17
2018-11-12T07:06:05.997Z,13.53
2018-11-12T07:08:38.468Z,14.30
2018-11-12T07:11:11.050Z,12.83
2018-11-12T07:13:43.523Z,12.37
2018-11-12T07:16:16.006Z,12.43
2018-11-12T07:18:48.791Z,13.00
2018-11-12T07:21:21.289Z,13.03
2018-11-12T07:23:53.732Z,12.93
2018-11-12T07:26:26.289Z,12.33
2018-11-12T07:28:58.765Z,14.00
2018-11-12T07:31:31.365Z,13.20
2018-11-12T07:34:03.925Z,12.93
2018-11-12T07:36:36.344Z,12.83
2018-11-12T07:39:10.843Z,12.73
2018-11-12T07:41:43.332Z,14.17
2018-11-12T07:44:16.204Z,13.33
2018-11-12T07:46:48.698Z,13.20
2018-11-12T07:49:21.236Z,13.70
2018-11-12T07:51:53.847Z,13.17
2018-11-12T07:54:57.266Z,13.27
2018-11-12T07:57:29.793Z,14.30
2018-11-12T08:00:02.430Z,13.53
2018-11-12T08:02:34.969Z,14.43
2018-11-12T08:05:07.680Z,13.37
2018-11-12T08:07:40.945Z,14.40
2018-11-12T08:10:14.847Z,13.63
2018-11-12T08:12:47.798Z,14.40
2018-11-12T08:15:20.540Z,14.23
2018-11-12T08:17:53.001Z,15.67
2018-11-12T08:20:26.187Z,15.17
2018-11-12T08:22:58.639Z,15.17
2018-11-12T08:25:31.162Z,13.37
2018-11-12T08:28:03.669Z,14.90
2018-11-12T08:30:36.150Z,14.80
2018-11-12T08:33:08.791Z,14.87
2018-11-12T08:35:41.555Z,14.73
2018-11-12T08:38:14.182Z,14.73
2018-11-12T08:40:46.709Z,15.07
2018-11-12T08:43:19.120Z,14.07
2018-11-12T08:45:51.599Z,15.10
2018-11-12T08:48:24.422Z,15.73
2018-11-12T08:50:56.831Z,15.90
2018-11-12T08:53:29.521Z,17.43
2018-11-12T08:56:02.071Z,16.83
2018-11-12T08:58:34.619Z,17.27
2018-11-12T09:01:07.252Z,16.30
2018-11-12T09:03:39.747Z,15.77
2018-11-12T09:06:12.366Z,16.53
2018-11-12T09:08:44.839Z,16.00
2018-11-12T09:11:17.379Z,14.10
2018-11-12T09:13:49.948Z,15.30
2018-11-12T09:16:22.389Z,14.53
2018-11-12T09:18:54.883Z,14.90
2018-11-12T09:21:27.328Z,15.97
2018-11-12T09:24:00.155Z,14.60
2018-11-12T09:26:32.716Z,14.53
2018-11-12T09:29:05.277Z,15.80
2018-11-12T09:31:37.983Z,14.17
2018-11-12T09:34:10.515Z,15.33
2018-11-12T09:36:43.068Z,19.00
2018-11-12T09:39:15.492Z,14.93
2018-11-12T09:41:47.922Z,14.60
2018-11-12T09:44:20.366Z,14.07
2018-11-12T09:46:53.081Z,14.27
2018-11-12T09:49:25.619Z,13.33
2018-11-12T09:51:58.091Z,12.17
2018-11-12T09:54:30.729Z,13.37
2018-11-12T09:57:03.160Z,13.67
2018-11-12T09:59:35.946Z,13.70
2018-11-12T10:02:09.099Z,12.80
2018-11-12T10:04:42.261Z,13.33
2018-11-12T10:07:14.765Z,12.57
2018-11-12T10:09:48.699Z,13.47
2018-11-12T10:12:20.236Z,12.57
2018-11-12T10:14:54.849Z,13.27
2018-11-12T10:17:27.195Z,13.00
2018-11-12T10:19:56.278Z,13.07
2018-11-12T10:22:28.713Z,11.90
2018-11-12T10:25:01.312Z,11.50
2018-11-12T10:27:33.784Z,12.43
2018-11-12T10:30:07.523Z,12.00
2018-11-12T10:32:40.066Z,11.90
2018-11-12T10:35:12.607Z,12.13
2018-11-12T10:37:45.144Z,13.07
2018-11-12T10:40:19.287Z,12.17
2018-11-12T10:42:51.834Z,13.00
2018-11-12T10:45:24.294Z,12.13
2018-11-12T10:47:56.802Z,12.37
2018-11-12T10:50:29.635Z,12.27
2018-11-12T10:53:02.293Z,12.93
2018-11-12T10:55:35.048Z,12.50
2018-11-12T10:58:07.415Z,12.67
2018-11-12T11:00:45.508Z,11.50
2018-11-12T11:03:23.498Z,16.63
2018-11-12T11:05:56.107Z,14.63
2018-11-12T11:08:29.227Z,13.20
2018-11-12T11:11:02.016Z,14.47
2018-11-12T11:13:34.735Z,13.03
2018-11-12T11:16:08.204Z,13.63
2018-11-12T11:18:40.710Z,12.83
2018-11-12T11:21:13.315Z,13.77
2018-11-12T11:23:45.792Z,13.73
2018-11-12T11:26:18.328Z,13.13
2018-11-12T11:28:50.854Z,13.97
2018-11-12T11:31:23.325Z,15.70
2018-11-12T11:33:55.775Z,13.27
2018-11-12T11:36:28.261Z,14.30
2018-11-12T11:39:00.751Z,13.63
2018-11-12T11:41:33.246Z,13.07
2018-11-12T11:44:06.003Z,12.63
2018-11-12T11:46:38.611Z,12.17
2018-11-12T11:49:11.148Z,13.97
2018-11-12T11:51:43.784Z,14.40
2018-11-12T11:54:16.207Z,12.73
2018-11-12T11:56:48.989Z,12.93
2018-11-12T11:59:21.306Z,12.87
2018-11-12T12:01:53.845Z,12.63
2018-11-12T12:04:26.357Z,15.80
2018-11-12T12:06:58.975Z,16.73
2018-11-12T12:09:31.512Z,15.37
2018-11-12T12:12:04.804Z,14.73
2018-11-12T12:14:37.333Z,12.43
2018-11-12T12:17:11.494Z,14.07
2018-11-12T12:19:44.225Z,14.00
2018-11-12T12:22:16.736Z,13.83
2018-11-12T12:24:49.596Z,14.53
2018-11-12T12:27:22.087Z,13.80
2018-11-12T12:29:54.640Z,14.60
2018-11-12T12:32:27.085Z,14.53
2018-11-12T12:34:59.762Z,12.37
2018-11-12T12:37:33.304Z,12.17
2018-11-12T12:40:07.911Z,13.30
2018-11-12T12:42:40.512Z,13.97
2018-11-12T12:45:14.613Z,13.70
2018-11-12T12:47:48.228Z,13.30
2018-11-12T12:50:21.077Z,12.93
2018-11-12T12:52:53.609Z,12.67
2018-11-12T12:55:26.230Z,13.33
2018-11-12T12:57:59.341Z,13.40
2018-11-12T13:00:31.960Z,12.13
2018-11-12T13:03:04.965Z,13.30
2018-11-12T13:05:37.481Z,13.57
2018-11-12T13:08:10.020Z,12.17
2018-11-12T13:10:42.429Z,13.97
2018-11-12T13:13:15.393Z,13.27
2018-11-12T13:15:47.896Z,12.90
2018-11-12T13:18:20.930Z,13.17
2018-11-12T13:20:53.447Z,13.20
2018-11-12T13:23:26.002Z,13.63
2018-11-12T13:25:58.540Z,12.27
2018-11-12T13:28:31.069Z,12.93
2018-11-12T13:31:03.592Z,13.97
2018-11-12T13:33:36.173Z,13.40
2018-11-12T13:36:08.774Z,14.13
2018-11-12T13:38:41.414Z,13.83
2018-11-12T13:41:13.944Z,14.87
2018-11-12T13:43:46.419Z,12.33
2018-11-12T13:46:19.067Z,12.23
2018-11-12T13:48:51.558Z,12.47
2018-11-12T13:51:24.251Z,13.40
2018-11-12T13:53:56.888Z,12.80
2018-11-12T13:56:29.409Z,23.23
2018-11-12T13:59:02.610Z,17.27
2018-11-12T14:01:35.314Z,16.73
2018-11-12T14:04:07.928Z,16.67
2018-11-12T14:06:40.404Z,16.40
2018-11-12T14:09:13.027Z,13.97
2018-11-12T14:11:45.938Z,13.87
2018-11-12T14:14:18.434Z,12.67
2018-11-12T14:16:50.878Z,13.07
2018-11-12T14:19:23.403Z,13.40
2018-11-12T14:21:55.887Z,12.97
2018-11-12T14:24:28.386Z,12.87
2018-11-12T14:27:00.954Z,12.63
2018-11-12T14:29:33.677Z,11.90
2018-11-12T14:32:06.141Z,12.57
2018-11-12T14:34:38.662Z,12.07
2018-11-12T14:37:11.131Z,12.67
2018-11-12T14:39:43.846Z,12.23
2018-11-12T14:42:16.282Z,11.90
2018-11-12T14:44:48.895Z,13.37
2018-11-12T14:47:21.857Z,12.27
2018-11-12T14:49:54.433Z,14.40
2018-11-12T14:52:26.886Z,14.23
2018-11-12T14:54:59.432Z,12.90
2018-11-12T14:57:32.028Z,13.50
2018-11-12T15:00:10.300Z,12.73
2018-11-12T15:02:42.898Z,12.57
2018-11-12T15:05:16.649Z,13.40
2018-11-12T15:07:49.490Z,14.57
2018-11-12T15:10:22.031Z,13.10
2018-11-12T15:12:54.562Z,12.63
2018-11-12T15:15:27.103Z,13.23
2018-11-12T15:17:59.840Z,13.60
2018-11-12T15:20:32.668Z,14.23
2018-11-12T15:23:05.507Z,13.87
2018-11-12T15:25:38.074Z,14.17
2018-11-12T15:28:11.756Z,13.67
2018-11-12T15:30:44.229Z,27.43
2018-11-12T15:33:16.774Z,20.07
2018-11-12T15:35:49.229Z,19.73
2018-11-12T15:38:21.739Z,14.83
2018-11-12T15:40:54.363Z,16.63
2018-11-12T15:43:26.932Z,15.23
2018-11-12T15:45:59.460Z,13.67
2018-11-12T15:48:31.981Z,13.17
2018-11-12T15:51:04.774Z,15.73
2018-11-12T15:53:37.421Z,14.10
2018-11-12T15:56:09.929Z,13.90
2018-11-12T15:58:42.494Z,14.23
2018-11-12T16:01:15.250Z,14.40
2018-11-12T16:03:47.902Z,15.50
2018-11-12T16:06:20.362Z,14.33
2018-11-12T16:08:53.013Z,14.63
2018-11-12T16:11:25.661Z,14.33
2018-11-12T16:13:58.217Z,14.33
2018-11-12T16:16:30.765Z,14.13
2018-11-12T16:19:03.436Z,14.73
2018-11-12T16:21:36.211Z,14.53
2018-11-12T16:24:08.747Z,14.97
2018-11-12T16:26:41.445Z,15.00
2018-11-12T16:29:14.009Z,14.53
2018-11-12T16:31:46.462Z,14.77
2018-11-12T16:34:19.002Z,13.33
2018-11-12T16:39:36.775Z,14.00
2018-11-12T16:42:10.254Z,12.87
2018-11-12T16:44:43.016Z,13.33
2018-11-12T16:47:16.015Z,14.00
2018-11-12T16:49:48.729Z,14.13
2018-11-12T16:52:21.246Z,13.70
2018-11-12T16:54:53.909Z,13.97
2018-11-12T16:57:26.409Z,15.00
2018-11-12T16:59:59.696Z,12.80
2018-11-12T17:02:32.353Z,14.10
2018-11-12T17:05:14.246Z,12.23
2018-11-12T17:07:46.893Z,12.37
2018-11-12T17:10:20.785Z,11.97
2018-11-12T17:12:53.524Z,12.30
2018-11-12T17:15:26.158Z,12.07
2018-11-12T17:17:58.734Z,13.50
2018-11-12T17:20:31.551Z,13.23
2018-11-12T17:23:04.934Z,13.27
2018-11-12T17:25:37.693Z,12.97
2018-11-12T17:28:10.460Z,13.43
2018-11-12T17:30:42.882Z,13.50
2018-11-12T17:33:17.273Z,11.97
2018-11-12T17:35:49.878Z,11.53
2018-11-12T17:38:22.410Z,11.80
2018-11-12T17:40:54.981Z,11.93
2018-11-12T17:43:27.683Z,12.23
2018-11-12T17:46:00.164Z,12.23
2018-11-12T17:48:32.589Z,12.63
2018-11-12T17:51:05.483Z,12.83
2018-11-12T17:53:37.957Z,12.27
2018-11-12T17:56:10.763Z,12.17
2018-11-12T17:58:43.280Z,12.90
2018-11-12T18:01:16.564Z,13.00
2018-11-12T18:03:49.369Z,17.53
2018-11-12T18:06:22.453Z,14.37
2018-11-12T18:08:55.102Z,13.43
2018-11-12T18:11:27.682Z,12.10
2018-11-12T18:14:00.113Z,11.83
2018-11-12T18:16:32.598Z,11.23
2018-11-12T18:19:05.195Z,11.87
2018-11-12T18:21:37.898Z,11.23
2018-11-12T18:24:10.436Z,12.13
2018-11-12T18:26:42.942Z,11.10
2018-11-12T18:29:15.512Z,12.33
2018-11-12T18:31:48.344Z,12.57
2018-11-12T18:34:20.936Z,13.40
2018-11-12T18:36:53.775Z,14.67
2018-11-12T18:39:26.433Z,13.23
2018-11-12T18:41:59.214Z,12.03
2018-11-12T18:44:31.925Z,12.27
2018-11-12T18:47:05.288Z,13.03
2018-11-12T18:49:37.758Z,13.47
2018-11-12T18:52:10.773Z,12.70
2018-11-12T18:54:43.200Z,12.70
2018-11-12T18:57:15.713Z,12.77
2018-11-12T18:59:48.177Z,12.23
2018-11-12T19:02:20.770Z,12.80
2018-11-12T19:04:53.650Z,12.83
2018-11-12T19:07:26.238Z,13.13
2018-11-12T19:09:59.045Z,17.50
2018-11-12T19:12:31.489Z,19.77
2018-11-12T19:15:05.370Z,17.27
2018-11-12T19:17:37.787Z,15.90
2018-11-12T19:20:10.335Z,14.43
2018-11-12T19:22:42.944Z,14.40
2018-11-12T19:25:15.551Z,15.23
2018-11-12T19:27:48.016Z,14.63
2018-11-12T19:30:21.867Z,13.97
2018-11-12T19:32:54.759Z,14.30
2018-11-12T19:35:28.922Z,13.27
2018-11-12T19:38:01.370Z,13.13
2018-11-12T19:40:34.007Z,13.87
2018-11-12T19:43:06.420Z,13.30
2018-11-12T19:45:39.018Z,12.20
2018-11-12T19:48:11.445Z,13.27
2018-11-12T19:50:44.265Z,12.93
2018-11-12T19:53:16.766Z,14.20
2018-11-12T19:55:50.717Z,14.67
2018-11-12T19:58:23.182Z,14.40
2018-11-12T20:00:55.617Z,14.53
2018-11-12T20:03:28.160Z,16.27
2018-11-12T20:06:00.934Z,15.27
2018-11-12T20:08:33.385Z,15.67
2018-11-12T20:11:05.888Z,14.70
2018-11-12T20:13:38.291Z,14.53
2018-11-12T20:16:10.738Z,13.23
2018-11-12T20:18:43.200Z,15.03
2018-11-12T20:21:15.717Z,14.43
2018-11-12T20:23:48.242Z,14.03
2018-11-12T20:26:21.052Z,15.03
2018-11-12T20:28:53.482Z,14.70
2018-11-12T20:31:25.969Z,15.83
2018-11-12T20:33:58.757Z,15.03
2018-11-12T20:36:31.289Z,15.43
2018-11-12T20:39:06.527Z,13.03
2018-11-12T20:41:39.258Z,13.00
2018-11-12T20:44:11.809Z,13.17
2018-11-12T20:46:44.278Z,11.87
2018-11-12T20:49:16.841Z,12.83
2018-11-12T20:51:49.323Z,12.07
2018-11-12T20:54:21.883Z,12.77
2018-11-12T20:56:54.266Z,13.93
2018-11-12T20:59:26.788Z,13.23
2018-11-12T21:01:59.202Z,14.87
2018-11-12T21:04:31.926Z,13.53
2018-11-12T21:07:04.533Z,12.53
2018-11-12T21:09:37.099Z,13.43
2018-11-12T21:12:09.580Z,13.00
2018-11-12T21:14:42.008Z,13.97
2018-11-12T21:17:14.477Z,11.97
2018-11-12T21:19:46.989Z,11.90
2018-11-12T21:22:19.432Z,11.70
2018-11-12T21:24:52.095Z,12.77
2018-11-12T21:27:24.618Z,13.10
2018-11-12T21:29:57.058Z,12.10
2018-11-12T21:32:29.590Z,12.23
2018-11-12T21:35:02.168Z,11.70
2018-11-12T21:37:34.687Z,12.70
2018-11-12T21:40:09.855Z,12.70
2018-11-12T21:42:42.358Z,12.07
2018-11-12T21:45:16.439Z,13.70
2018-11-12T21:47:48.983Z,13.23
2018-11-12T21:50:22.006Z,14.23
2018-11-12T21:52:54.522Z,12.17
2018-11-12T21:55:27.068Z,12.67
2018-11-12T21:57:59.605Z,11.87
2018-11-12T22:00:32.085Z,11.47
2018-11-12T22:03:04.901Z,11.90
2018-11-12T22:05:37.583Z,12.50
2018-11-12T22:08:10.427Z,11.77
2018-11-12T22:10:42.898Z,11.23
2018-11-12T22:13:15.429Z,11.77
2018-11-12T22:15:47.946Z,10.80
2018-11-12T22:18:20.425Z,9.87
2018-11-12T22:20:52.880Z,9.73
2018-11-12T22:23:25.334Z,9.70
2018-11-12T22:25:58.004Z,9.63
2018-11-12T22:28:30.528Z,11.07
2018-11-12T22:31:02.954Z,11.37
2018-11-12T22:33:35.468Z,13.40
2018-11-12T22:36:08.007Z,12.83
2018-11-12T22:38:40.488Z,13.43
2018-11-12T22:41:12.962Z,14.03
2018-11-12T22:43:45.411Z,11.43
2018-11-12T22:46:17.940Z,12.03
2018-11-12T22:48:50.682Z,10.53
2018-11-12T22:51:23.162Z,11.60
2018-11-12T22:53:55.660Z,9.83
2018-11-12T22:56:28.287Z,9.97
2018-11-12T22:59:00.727Z,9.40
2018-11-12T23:01:33.264Z,14.33
2018-11-12T23:04:05.671Z,11.50
2018-11-12T23:06:38.238Z,9.53
2018-11-12T23:09:18.202Z,9.73
2018-11-12T23:11:50.699Z,9.13
2018-11-12T23:14:23.205Z,8.40
2018-11-12T23:16:56.083Z,8.97
2018-11-12T23:19:28.532Z,9.27
2018-11-12T23:22:00.987Z,8.23
2018-11-12T23:24:33.381Z,9.70
2018-11-12T23:27:05.926Z,9.67
2018-11-12T23:29:38.348Z,9.33
2018-11-12T23:32:11.034Z,8.67
2018-11-12T23:34:43.483Z,8.33
2018-11-12T23:37:16.084Z,8.57
2018-11-12T23:39:48.488Z,9.03
2018-11-12T23:42:20.973Z,9.03
2018-11-12T23:44:53.380Z,9.23
2018-11-12T23:47:26.017Z,9.03
2018-11-12T23:49:59.737Z,8.37
2018-11-12T23:52:32.797Z,8.43
2018-11-12T23:55:05.470Z,8.53
2018-11-12T23:57:37.967Z,8.73
